SHF442 EGUB-EGXC

Flight info

Callsign SHF442
Flight time 0h 43m
Altitude 5000
Route VFR
Aircraft H47/L-V/N

Departure

Time 2026-05-07 17:41
Airport RAF Benson (EGUB)

Arrival

Time 2026-05-07 18:24
Airport RAF Coningsby (EGXC)
Time Latitude Longitude Altitude Speed Heading
2026-05-07 17:38 51.61887 -1.08719 199 ft 0 kts 360°
2026-05-07 17:40 51.61970 -1.08706 252 ft 28 kts 355°
2026-05-07 17:40 51.62354 -1.08696 440 ft 89 kts
2026-05-07 17:40 51.63123 -1.08476 643 ft 126 kts 10°
2026-05-07 17:41 51.63973 -1.08103 963 ft 128 kts 22°
2026-05-07 17:41 51.64760 -1.07356 1207 ft 134 kts 34°
2026-05-07 17:41 51.65580 -1.06515 1181 ft 148 kts 30°
2026-05-07 17:41 51.66532 -1.05770 973 ft 148 kts 27°
2026-05-07 17:42 51.67406 -1.04993 1048 ft 141 kts 31°
2026-05-07 17:42 51.68232 -1.04153 1150 ft 140 kts 33°
2026-05-07 17:42 51.69028 -1.03223 1197 ft 144 kts 37°
2026-05-07 17:42 51.69847 -1.02207 1036 ft 152 kts 38°
2026-05-07 17:43 51.70655 -1.01169 952 ft 147 kts 39°
2026-05-07 17:43 51.71423 -1.00119 983 ft 141 kts 39°
2026-05-07 17:43 51.72188 -0.99146 1115 ft 140 kts 38°
2026-05-07 17:43 51.72977 -0.98187 1161 ft 142 kts 37°
2026-05-07 17:44 51.73781 -0.97223 1145 ft 146 kts 36°
2026-05-07 17:44 51.74616 -0.96252 996 ft 152 kts 36°
2026-05-07 17:44 51.75510 -0.95253 738 ft 157 kts 34°
2026-05-07 17:44 51.76370 -0.94340 797 ft 140 kts 34°
2026-05-07 17:45 51.77137 -0.93427 1029 ft 135 kts 37°
2026-05-07 17:45 51.77883 -0.92533 1256 ft 135 kts 35°
2026-05-07 17:45 51.78707 -0.91716 1345 ft 143 kts 30°
2026-05-07 17:45 51.79612 -0.90932 1202 ft 150 kts 28°
2026-05-07 17:46 51.80496 -0.90146 1151 ft 145 kts 29°
2026-05-07 17:46 51.81362 -0.89345 1197 ft 146 kts 30°
2026-05-07 17:46 51.82241 -0.88524 1170 ft 145 kts 31°
2026-05-07 17:46 51.83103 -0.87727 1273 ft 142 kts 30°
2026-05-07 17:47 51.83980 -0.87001 1421 ft 142 kts 27°
2026-05-07 17:47 51.84900 -0.86388 1517 ft 143 kts 21°
2026-05-07 17:47 51.85533 -0.86075 1553 ft 145 kts 17°
2026-05-07 17:47 51.86817 -0.85332 1552 ft 146 kts 23°
2026-05-07 17:48 51.87745 -0.84676 1512 ft 149 kts 25°
2026-05-07 17:48 51.88707 -0.84022 1437 ft 151 kts 22°
2026-05-07 17:48 51.89678 -0.83359 1357 ft 151 kts 24°
2026-05-07 17:48 51.90646 -0.82777 1357 ft 144 kts 21°
2026-05-07 17:49 51.91564 -0.82245 1601 ft 138 kts 21°
2026-05-07 17:49 51.92435 -0.81651 1838 ft 138 kts 25°
2026-05-07 17:49 51.93381 -0.80869 1500 ft 167 kts 30°
2026-05-07 17:49 51.94363 -0.79965 1219 ft 151 kts 30°
2026-05-07 17:50 51.95250 -0.79231 1433 ft 138 kts 27°
2026-05-07 17:50 51.96125 -0.78606 1714 ft 140 kts 25°
2026-05-07 17:50 51.97049 -0.78016 1732 ft 148 kts 21°
2026-05-07 17:50 51.98036 -0.77512 1638 ft 150 kts 17°
2026-05-07 17:51 51.99041 -0.77064 1576 ft 150 kts 17°
2026-05-07 17:51 52.00046 -0.76606 1534 ft 149 kts 17°
2026-05-07 17:51 52.01052 -0.76175 1475 ft 150 kts 15°
2026-05-07 17:51 52.02059 -0.75792 1400 ft 151 kts 14°
2026-05-07 17:52 52.03085 -0.75405 1330 ft 150 kts 14°
2026-05-07 17:52 52.04104 -0.75040 1299 ft 147 kts 14°
2026-05-07 17:52 52.05061 -0.74649 1490 ft 141 kts 16°
2026-05-07 17:52 52.06014 -0.74253 1632 ft 144 kts 15°
2026-05-07 17:53 52.07003 -0.73857 1657 ft 150 kts 14°
2026-05-07 17:53 52.08035 -0.73561 1601 ft 145 kts 12°
2026-05-07 17:53 52.08892 -0.73039 2009 ft 133 kts 29°
2026-05-07 17:53 52.09797 -0.72345 1948 ft 152 kts 27°
2026-05-07 17:54 52.10797 -0.71597 1573 ft 167 kts 25°
2026-05-07 17:54 52.11873 -0.70870 1244 ft 162 kts 24°
2026-05-07 17:54 52.12857 -0.70149 1280 ft 150 kts 28°
2026-05-07 17:54 52.13802 -0.69360 1140 ft 156 kts 30°
2026-05-07 17:55 52.14726 -0.68533 1137 ft 148 kts 32°
2026-05-07 17:55 52.15648 -0.67761 1101 ft 149 kts 29°
2026-05-07 17:55 52.16262 -0.67280 1088 ft 147 kts 28°
2026-05-07 17:55 52.17180 -0.66560 1115 ft 143 kts 28°
2026-05-07 17:56 52.18337 -0.65593 1355 ft 142 kts 30°
2026-05-07 17:56 52.18923 -0.65098 1432 ft 144 kts 29°
2026-05-07 17:56 52.19818 -0.64331 1500 ft 148 kts 29°
2026-05-07 17:56 52.20726 -0.63543 1503 ft 147 kts 30°
2026-05-07 17:57 52.21965 -0.62518 1397 ft 152 kts 28°
2026-05-07 17:57 52.22584 -0.61982 1380 ft 151 kts 30°
2026-05-07 17:57 52.23509 -0.61200 1373 ft 146 kts 29°
2026-05-07 17:57 52.24391 -0.60396 1428 ft 145 kts 31°
2026-05-07 17:58 52.25258 -0.59561 1504 ft 145 kts 33°
2026-05-07 17:58 52.26125 -0.58695 1504 ft 149 kts 34°
2026-05-07 17:58 52.27020 -0.57776 1327 ft 150 kts 34°
2026-05-07 17:58 52.27885 -0.56835 1238 ft 151 kts 36°
2026-05-07 17:59 52.28733 -0.55872 1084 ft 145 kts 39°
2026-05-07 17:59 52.29497 -0.54961 1259 ft 130 kts 41°
2026-05-07 17:59 52.30215 -0.54063 1505 ft 130 kts 41°
2026-05-07 17:59 52.30917 -0.53157 1795 ft 128 kts 42°
2026-05-07 18:00 52.31677 -0.52242 1828 ft 144 kts 39°
2026-05-07 18:00 52.32505 -0.51243 1536 ft 155 kts 41°
2026-05-07 18:00 52.33326 -0.50187 1410 ft 143 kts 42°
2026-05-07 18:00 52.34108 -0.49220 1458 ft 140 kts 41°
2026-05-07 18:01 52.34897 -0.48278 1464 ft 141 kts 39°
2026-05-07 18:01 52.35727 -0.47369 1367 ft 146 kts 33°
2026-05-07 18:01 52.36680 -0.46863 1278 ft 145 kts 17°
2026-05-07 18:01 52.37655 -0.46612 1373 ft 140 kts 13°
2026-05-07 18:02 52.39572 -0.45991 1489 ft 146 kts 14°
2026-05-07 18:02 52.40602 -0.45720 1290 ft 152 kts 12°
2026-05-07 18:02 52.41622 -0.45526 1194 ft 148 kts 11°
2026-05-07 18:03 52.42630 -0.45347 1189 ft 143 kts 11°
2026-05-07 18:03 52.43594 -0.45198 1333 ft 136 kts
2026-05-07 18:03 52.44533 -0.45134 1745 ft 135 kts
2026-05-07 18:03 52.45461 -0.45016 2275 ft 135 kts
2026-05-07 18:04 52.46373 -0.44898 3315 ft 128 kts
2026-05-07 18:04 52.47258 -0.44839 4371 ft 128 kts
2026-05-07 18:04 52.48175 -0.44790 4612 ft 137 kts
2026-05-07 18:04 52.49130 -0.44734 4632 ft 141 kts
2026-05-07 18:05 52.50116 -0.44653 4521 ft 140 kts
2026-05-07 18:05 52.51064 -0.44655 4592 ft 139 kts 359°
2026-05-07 18:05 52.52082 -0.44710 4366 ft 151 kts 359°
2026-05-07 18:05 52.53166 -0.44844 3927 ft 161 kts 354°
2026-05-07 18:06 52.54291 -0.45113 3464 ft 159 kts 352°
2026-05-07 18:06 52.55353 -0.45369 3727 ft 148 kts 352°
2026-05-07 18:06 52.56347 -0.45558 3749 ft 145 kts 354°
2026-05-07 18:06 52.57350 -0.45699 3806 ft 145 kts 356°
2026-05-07 18:07 52.58375 -0.45792 3753 ft 152 kts 359°
2026-05-07 18:07 52.59454 -0.45791 3527 ft 152 kts
2026-05-07 18:07 52.60484 -0.45762 3547 ft 142 kts
2026-05-07 18:07 52.61398 -0.45747 3929 ft 124 kts
2026-05-07 18:08 52.62303 -0.45815 4121 ft 139 kts 359°
2026-05-07 18:08 52.63313 -0.45836 3984 ft 149 kts
2026-05-07 18:08 52.64326 -0.45924 4020 ft 143 kts 355°
2026-05-07 18:08 52.65319 -0.46108 4075 ft 143 kts 354°
2026-05-07 18:09 52.66307 -0.46220 4161 ft 140 kts 358°
2026-05-07 18:09 52.67258 -0.46199 4358 ft 136 kts
2026-05-07 18:09 52.68203 -0.46126 4517 ft 138 kts
2026-05-07 18:09 52.69160 -0.45910 4059 ft 141 kts
2026-05-07 18:10 52.70164 -0.45740 1994 ft 148 kts
2026-05-07 18:10 52.71174 -0.45704 1198 ft 139 kts
2026-05-07 18:10 52.72130 -0.45704 1238 ft 139 kts
2026-05-07 18:10 52.73102 -0.45840 1266 ft 140 kts 360°
2026-05-07 18:11 52.74066 -0.45853 1295 ft 137 kts
2026-05-07 18:11 52.75024 -0.45586 1210 ft 144 kts 18°
2026-05-07 18:11 52.75994 -0.45126 948 ft 145 kts 20°
2026-05-07 18:11 52.76943 -0.44656 1060 ft 133 kts 20°
2026-05-07 18:12 52.77801 -0.44210 1439 ft 126 kts 21°
2026-05-07 18:12 52.78758 -0.43734 670 ft 155 kts 23°
2026-05-07 18:12 52.79750 -0.43222 686 ft 145 kts 21°
2026-05-07 18:12 52.80714 -0.42765 723 ft 144 kts 18°
2026-05-07 18:13 52.81676 -0.42359 703 ft 144 kts 19°
2026-05-07 18:13 52.82652 -0.41918 636 ft 144 kts 20°
2026-05-07 18:13 52.83605 -0.41485 774 ft 142 kts 20°
2026-05-07 18:13 52.84594 -0.41031 691 ft 152 kts 19°
2026-05-07 18:14 52.85603 -0.40607 634 ft 146 kts 20°
2026-05-07 18:14 52.86534 -0.40165 559 ft 127 kts 21°
2026-05-07 18:14 52.87309 -0.39787 495 ft 110 kts 21°
2026-05-07 18:14 52.88058 -0.39410 586 ft 115 kts 22°
2026-05-07 18:15 52.88835 -0.39041 599 ft 117 kts 21°
2026-05-07 18:15 52.89628 -0.38675 579 ft 121 kts 21°
2026-05-07 18:15 52.90414 -0.38320 626 ft 112 kts 21°
2026-05-07 18:15 52.91166 -0.37969 716 ft 113 kts 22°
2026-05-07 18:16 52.91923 -0.37629 706 ft 116 kts 22°
2026-05-07 18:16 52.92704 -0.37245 690 ft 114 kts 24°
2026-05-07 18:16 52.93430 -0.36865 834 ft 106 kts 25°
2026-05-07 18:16 52.94165 -0.36492 836 ft 117 kts 22°
2026-05-07 18:17 52.94976 -0.36060 649 ft 126 kts 24°
2026-05-07 18:17 52.95803 -0.35587 486 ft 118 kts 24°
2026-05-07 18:17 52.96472 -0.35167 754 ft 94 kts 28°
2026-05-07 18:17 52.97097 -0.34751 959 ft 99 kts 29°
2026-05-07 18:18 52.97794 -0.34291 936 ft 119 kts 26°
2026-05-07 18:18 52.98618 -0.33869 686 ft 125 kts 22°
2026-05-07 18:18 52.99429 -0.33638 699 ft 112 kts 16°
2026-05-07 18:18 53.00165 -0.33449 916 ft 104 kts 16°
2026-05-07 18:19 53.00897 -0.33323 1106 ft 106 kts 11°
2026-05-07 18:19 53.01621 -0.33200 969 ft 103 kts 13°
2026-05-07 18:19 53.02311 -0.33031 926 ft 100 kts 16°
2026-05-07 18:19 53.02985 -0.32846 966 ft 95 kts 17°
2026-05-07 18:20 53.03608 -0.32618 1064 ft 89 kts 21°
2026-05-07 18:20 53.04209 -0.32393 1189 ft 89 kts 22°
2026-05-07 18:20 53.04829 -0.32048 1197 ft 98 kts 28°
2026-05-07 18:20 53.05430 -0.31510 1177 ft 100 kts 40°
2026-05-07 18:21 53.06006 -0.30817 1062 ft 106 kts 44°
2026-05-07 18:21 53.06553 -0.30030 946 ft 104 kts 56°
2026-05-07 18:21 53.06924 -0.29059 856 ft 95 kts 81°
2026-05-07 18:21 53.07049 -0.28031 927 ft 82 kts 85°
2026-05-07 18:22 53.07234 -0.27196 1136 ft 77 kts 78°
2026-05-07 18:22 53.07370 -0.26600 1130 ft 87 kts 80°
2026-05-07 18:22 53.07552 -0.25247 1040 ft 93 kts 78°
2026-05-07 18:22 53.07801 -0.24198 894 ft 100 kts 73°
2026-05-07 18:23 53.08019 -0.23141 812 ft 96 kts 78°
2026-05-07 18:23 53.08217 -0.22103 763 ft 94 kts 77°
2026-05-07 18:23 53.08435 -0.21055 549 ft 97 kts 77°
2026-05-07 18:23 53.08652 -0.20006 381 ft 92 kts 75°
2026-05-07 18:24 53.08832 -0.19079 220 ft 76 kts 77°
2026-05-07 18:24 53.08962 -0.18363 183 ft 55 kts 73°
2026-05-07 18:24 53.09072 -0.17804 159 ft 45 kts 71°
2026-05-07 18:24 53.09171 -0.17287 129 ft 48 kts 70°
2026-05-07 18:25 53.09223 -0.16919 89 ft 13 kts 164°
2026-05-07 18:25 53.09080 -0.16817 112 ft 36 kts 150°
2026-05-07 18:25 53.08929 -0.16654 87 ft 19 kts 73°
2026-05-07 18:25 53.09010 -0.16504 30 ft 14 kts 30°
2026-05-07 18:26 53.09063 -0.16464 24 ft 0 kts 27°
2026-05-07 18:27 53.09064 -0.16464 24 ft 0 kts 27°
2026-05-07 18:27 53.09064 -0.16463 25 ft 0 kts 27°